Time;durP1;ratioP1;P1;durP2;ratioP2;P2;SDS_P1;SDS_P2;PMS_P1;PMS_P2;Temp;Humidity;BMP_temperature;BMP_pressure;BME280_temperature;BME280_humidity;BME280_pressure;Samples;Min_cycle;Max_cycle;Signal;HPM_P1;HPM_P2
2021/11/15 00:01:13;;;;;;;70.40;32.03;;;8.50;86.00;;;;;;5089594;28;20172;-80
2021/11/15 00:03:40;;;;;;;65.45;28.30;;;8.60;85.50;;;;;;5096276;28;20564;-80
2021/11/15 00:06:06;;;;;;;60.28;29.23;;;8.60;85.40;;;;;;5080282;28;20263;-80
2021/11/15 00:08:32;;;;;;;66.72;29.25;;;8.70;85.40;;;;;;5077865;28;20671;-80
2021/11/15 00:10:58;;;;;;;68.25;32.05;;;8.60;85.30;;;;;;5077095;28;20197;-81
2021/11/15 00:13:24;;;;;;;58.85;28.70;;;8.60;85.40;;;;;;5091635;28;20274;-80
2021/11/15 00:15:50;;;;;;;73.97;33.07;;;8.70;85.30;;;;;;5077252;28;20177;-81
2021/11/15 00:18:15;;;;;;;65.87;30.77;;;8.60;85.30;;;;;;5081168;28;20430;-80
2021/11/15 00:20:42;;;;;;;70.47;28.97;;;8.50;85.50;;;;;;5086086;28;20180;-81
2021/11/15 00:23:08;;;;;;;60.13;29.35;;;8.60;85.50;;;;;;5089716;28;20636;-81
2021/11/15 00:25:34;;;;;;;64.28;30.10;;;8.50;85.50;;;;;;5081939;28;20291;-80
2021/11/15 00:28:00;;;;;;;64.45;31.65;;;8.50;85.70;;;;;;5080278;28;20192;-81
2021/11/15 00:30:26;;;;;;;74.25;31.73;;;8.50;85.70;;;;;;5080898;28;20200;-81
2021/11/15 00:32:52;;;;;;;68.15;30.85;;;8.50;85.80;;;;;;5080879;28;20207;-81
2021/11/15 00:35:18;;;;;;;73.47;31.27;;;8.60;85.80;;;;;;5086587;28;20200;-81
2021/11/15 00:37:44;;;;;;;64.32;32.22;;;8.70;85.70;;;;;;5081461;28;20426;-81
2021/11/15 00:40:13;;;;;;;67.25;30.75;;;8.70;85.50;;;;;;5080684;28;20180;-80
2021/11/15 00:42:39;;;;;;;63.33;31.20;;;8.60;85.40;;;;;;5063352;28;20187;-80
2021/11/15 00:45:07;;;;;;;70.88;33.67;;;8.60;85.40;;;;;;5083063;28;20208;-81
2021/11/15 00:47:33;;;;;;;71.85;32.40;;;8.60;85.30;;;;;;5079870;28;20204;-81
2021/11/15 00:49:58;;;;;;;69.23;34.10;;;8.50;85.30;;;;;;5086667;28;20202;-80
2021/11/15 00:52:24;;;;;;;68.33;30.43;;;8.60;85.30;;;;;;5080768;28;20425;-80
2021/11/15 00:54:50;;;;;;;83.38;34.53;;;8.40;86.10;;;;;;5081968;28;20200;-80
2021/11/15 00:57:16;;;;;;;89.33;35.73;;;8.40;85.60;;;;;;5082770;28;20184;-80
2021/11/15 00:59:42;;;;;;;76.23;32.23;;;8.40;85.90;;;;;;5081513;28;20175;-80
2021/11/15 01:02:08;;;;;;;68.17;33.50;;;8.50;85.80;;;;;;5079008;28;20431;-81
2021/11/15 01:04:33;;;;;;;64.77;30.83;;;8.50;85.80;;;;;;5085997;28;20443;-81
2021/11/15 01:06:59;;;;;;;68.57;31.50;;;8.60;85.70;;;;;;5079544;28;20529;-81
2021/11/15 01:09:25;;;;;;;76.67;33.80;;;8.70;85.60;;;;;;5079017;28;20483;-80
2021/11/15 01:11:53;;;;;;;64.30;30.50;;;8.70;85.30;;;;;;5081637;28;20592;-80
2021/11/15 01:14:19;;;;;;;67.78;30.02;;;8.80;85.70;;;;;;5086274;28;20463;-80
2021/11/15 01:16:45;;;;;;;74.68;31.33;;;8.90;84.90;;;;;;5086942;28;20188;-80
2021/11/15 01:19:12;;;;;;;70.67;31.53;;;9.10;84.70;;;;;;5086256;28;20176;-81
2021/11/15 01:21:38;;;;;;;73.78;31.45;;;9.10;84.30;;;;;;5086466;28;20428;-81
2021/11/15 01:24:05;;;;;;;65.50;33.60;;;9.10;84.10;;;;;;5078527;28;20205;-80
2021/11/15 01:26:31;;;;;;;66.18;31.60;;;9.10;84.10;;;;;;5079922;28;20185;-80
2021/11/15 01:28:56;;;;;;;62.77;30.70;;;9.00;84.10;;;;;;5078270;28;20183;-81
2021/11/15 01:31:22;;;;;;;57.23;29.23;;;9.20;84.20;;;;;;5079051;28;20242;-81
2021/11/15 01:33:48;;;;;;;59.80;31.23;;;9.30;83.80;;;;;;5080640;28;20461;-81
2021/11/15 01:36:14;;;;;;;61.58;28.42;;;9.30;83.80;;;;;;5095784;28;20767;-81
2021/11/15 01:38:40;;;;;;;63.47;30.23;;;9.40;83.50;;;;;;5088082;28;20222;-80
2021/11/15 01:41:07;;;;;;;56.37;29.00;;;9.40;83.40;;;;;;5079558;28;20196;-81
2021/11/15 01:43:34;;;;;;;56.03;26.58;;;9.50;83.10;;;;;;5086836;28;20574;-80
2021/11/15 01:46:00;;;;;;;65.00;29.55;;;9.60;82.80;;;;;;5081913;28;20219;-80
2021/11/15 01:48:27;;;;;;;67.57;30.45;;;9.60;82.60;;;;;;5082352;28;20226;-80
2021/11/15 01:50:53;;;;;;;57.30;27.65;;;9.70;82.50;;;;;;5090332;28;20256;-80
2021/11/15 01:53:19;;;;;;;59.50;28.90;;;9.60;82.30;;;;;;5090169;28;20651;-81
2021/11/15 01:55:45;;;;;;;60.17;28.70;;;9.50;82.40;;;;;;5078490;28;20449;-81
2021/11/15 01:58:14;;;;;;;58.17;27.98;;;9.60;82.60;;;;;;5084855;28;20443;-81
2021/11/15 02:00:54;;;;;;;65.00;32.22;;;9.60;82.40;;;;;;5082230;28;20208;-80
2021/11/15 02:03:22;;;;;;;58.53;28.85;;;9.80;82.20;;;;;;5087345;28;20202;-82
2021/11/15 02:05:48;;;;;;;62.60;29.63;;;9.80;81.90;;;;;;5090139;28;20180;-81
2021/11/15 02:08:15;;;;;;;62.15;31.95;;;9.80;81.90;;;;;;5087488;28;20219;-81
2021/11/15 02:10:41;;;;;;;55.72;28.27;;;9.90;81.90;;;;;;5088202;28;20215;-81
2021/11/15 02:13:07;;;;;;;61.13;30.17;;;9.80;81.70;;;;;;5096446;28;20191;-80
2021/11/15 02:15:34;;;;;;;57.13;29.40;;;9.80;81.70;;;;;;5086625;28;20232;-81
2021/11/15 02:18:00;;;;;;;68.00;31.90;;;9.70;81.90;;;;;;5081335;28;20181;-81
2021/11/15 02:20:42;;;;;;;63.17;30.33;;;9.70;82.10;;;;;;5084962;28;20247;-80
2021/11/15 02:23:08;;;;;;;58.30;29.80;;;9.80;81.90;;;;;;5096481;28;20183;-81
2021/11/15 02:25:34;;;;;;;67.72;33.53;;;9.70;81.90;;;;;;5095838;28;20207;-81
2021/11/15 02:28:00;;;;;;;66.17;29.63;;;9.60;82.10;;;;;;5098384;28;20290;-80
2021/11/15 02:30:28;;;;;;;63.70;28.35;;;9.70;82.60;;;;;;5079595;28;20422;-80
2021/11/15 02:32:54;;;;;;;54.75;27.83;;;9.70;82.50;;;;;;5081930;28;20655;-80
2021/11/15 02:35:21;;;;;;;58.58;29.33;;;9.80;82.60;;;;;;5096727;28;20196;-80
2021/11/15 02:37:48;;;;;;;61.25;29.02;;;9.90;82.30;;;;;;5100246;28;20187;-80
2021/11/15 02:40:20;;;;;;;67.53;30.27;;;9.90;82.00;;;;;;5095729;28;20206;-81
2021/11/15 02:42:47;;;;;;;69.55;32.13;;;9.90;82.00;;;;;;5099673;28;20187;-80
2021/11/15 02:45:14;;;;;;;63.33;29.33;;;9.90;82.00;;;;;;5090606;28;20553;-80
2021/11/15 02:47:40;;;;;;;59.28;30.10;;;9.90;81.70;;;;;;5081020;28;20574;-80
2021/11/15 02:50:07;;;;;;;60.22;29.05;;;9.90;81.60;;;;;;5083586;28;20188;-80
2021/11/15 02:52:34;;;;;;;61.55;30.73;;;9.80;81.40;;;;;;5103609;28;20168;-81
2021/11/15 02:54:59;;;;;;;67.13;32.45;;;9.80;81.40;;;;;;5098493;28;20234;-80
2021/11/15 02:57:26;;;;;;;67.67;30.90;;;9.90;81.50;;;;;;5097873;28;20176;-81
2021/11/15 02:59:52;;;;;;;61.92;30.10;;;9.90;81.30;;;;;;5096760;28;20924;-80
2021/11/15 03:02:23;;;;;;;68.60;31.00;;;10.00;81.40;;;;;;5086380;28;20180;-81
2021/11/15 03:04:49;;;;;;;63.67;30.58;;;9.90;81.20;;;;;;5088527;28;20617;-81
2021/11/15 03:07:15;;;;;;;63.40;31.20;;;9.90;81.10;;;;;;5092898;28;20204;-81
2021/11/15 03:09:41;;;;;;;67.37;30.10;;;9.90;81.10;;;;;;5094924;28;20179;-81
2021/11/15 03:12:09;;;;;;;62.45;30.08;;;10.00;81.00;;;;;;5094811;28;20434;-80
2021/11/15 03:14:35;;;;;;;61.75;31.35;;;9.90;80.80;;;;;;5101565;28;20263;-81
2021/11/15 03:17:01;;;;;;;58.90;31.67;;;10.00;80.80;;;;;;5099386;28;20180;-81
2021/11/15 03:19:26;;;;;;;57.73;28.67;;;10.00;80.60;;;;;;5079037;28;20188;-81
2021/11/15 03:21:52;;;;;;;56.17;31.83;;;9.90;80.60;;;;;;5091996;28;20433;-80
2021/11/15 03:24:18;;;;;;;67.63;31.20;;;9.90;80.70;;;;;;5076838;28;20317;-81
2021/11/15 03:26:44;;;;;;;58.50;29.30;;;9.90;80.70;;;;;;5077398;28;20176;-80
2021/11/15 03:29:10;;;;;;;59.00;27.65;;;10.00;80.70;;;;;;5084915;28;20234;-81
2021/11/15 03:31:36;;;;;;;54.33;26.43;;;10.10;80.60;;;;;;5081889;28;20187;-81
2021/11/15 03:34:05;;;;;;;54.85;27.92;;;10.00;80.10;;;;;;5082481;28;20458;-80
2021/11/15 03:36:31;;;;;;;54.63;29.20;;;10.00;80.10;;;;;;5079951;28;20255;-81
2021/11/15 03:38:58;;;;;;;56.20;30.00;;;10.10;80.20;;;;;;5081711;28;20188;-80
2021/11/15 03:41:31;;;;;;;59.75;28.55;;;10.10;80.10;;;;;;5100464;28;20441;-81
2021/11/15 03:43:56;;;;;;;55.63;28.90;;;10.00;79.90;;;;;;5093121;28;20216;-81
2021/11/15 03:46:22;;;;;;;64.10;28.60;;;10.00;80.10;;;;;;5092271;28;20231;-81
2021/11/15 03:48:50;;;;;;;55.73;29.70;;;9.90;79.90;;;;;;5093539;28;20212;-82
2021/11/15 03:51:17;;;;;;;57.97;27.50;;;9.90;80.20;;;;;;5095222;28;20419;-80
2021/11/15 03:53:43;;;;;;;58.75;29.95;;;9.90;80.40;;;;;;5109825;28;20211;-80
2021/11/15 03:56:12;;;;;;;56.22;29.40;;;10.10;80.40;;;;;;5105319;28;20180;-80
2021/11/15 03:58:39;;;;;;;59.75;30.05;;;10.00;80.20;;;;;;5105972;28;20185;-81
2021/11/15 04:01:05;;;;;;;65.25;29.88;;;10.10;80.20;;;;;;5106123;28;20177;-81
2021/11/15 04:03:34;;;;;;;58.17;31.23;;;10.10;80.10;;;;;;5106303;28;20209;-80
2021/11/15 04:06:23;;;;;;;60.97;29.80;;;10.10;80.00;;;;;;5104312;28;20172;-80
2021/11/15 04:08:54;;;;;;;56.50;28.50;;;10.10;79.70;;;;;;5085453;28;20204;-81
2021/11/15 04:11:21;;;;;;;55.58;30.08;;;10.00;79.70;;;;;;5073983;28;20616;-82
2021/11/15 04:13:50;;;;;;;52.60;28.40;;;10.10;79.80;;;;;;5087506;28;20710;-81
2021/11/15 04:16:19;;;;;;;55.50;28.30;;;10.10;79.70;;;;;;5081723;28;20211;-81
2021/11/15 04:18:53;;;;;;;55.60;28.25;;;10.10;79.50;;;;;;5081503;28;20725;-80
2021/11/15 04:21:20;;;;;;;62.63;29.85;;;10.10;79.50;;;;;;5083960;28;20185;-81
2021/11/15 04:23:47;;;;;;;57.90;29.52;;;10.00;79.50;;;;;;5083250;28;20292;-81
2021/11/15 04:26:13;;;;;;;55.85;29.60;;;10.00;79.80;;;;;;5090949;28;20184;-80
2021/11/15 04:28:39;;;;;;;54.47;27.13;;;9.90;79.60;;;;;;5091121;28;20199;-80
2021/11/15 04:31:04;;;;;;;56.17;30.50;;;9.80;79.50;;;;;;5083445;28;20177;-81
2021/11/15 04:33:30;;;;;;;54.03;28.10;;;9.70;79.50;;;;;;5081576;28;20530;-80
2021/11/15 04:35:56;;;;;;;55.60;28.00;;;9.80;79.50;;;;;;5087858;28;20796;-80
2021/11/15 04:38:22;;;;;;;57.50;29.80;;;9.90;79.50;;;;;;5084977;28;20196;-80
2021/11/15 04:40:48;;;;;;;54.55;30.00;;;9.80;79.20;;;;;;5081058;28;20510;-81
2021/11/15 04:43:14;;;;;;;54.28;27.83;;;9.80;79.40;;;;;;5081086;28;20188;-81
2021/11/15 04:45:40;;;;;;;51.37;27.73;;;9.80;79.50;;;;;;5080611;28;20200;-80
2021/11/15 04:48:06;;;;;;;53.03;28.27;;;9.90;79.70;;;;;;5081435;28;20533;-80
2021/11/15 04:50:32;;;;;;;53.70;26.43;;;9.80;79.30;;;;;;5088872;28;20434;-80
2021/11/15 04:52:58;;;;;;;47.58;26.25;;;9.80;79.40;;;;;;5085387;28;20420;-81
2021/11/15 04:55:25;;;;;;;50.10;27.10;;;9.70;79.40;;;;;;5091609;28;20196;-81
2021/11/15 04:57:53;;;;;;;52.35;27.85;;;9.60;79.70;;;;;;5081964;28;20836;-80
2021/11/15 05:00:24;;;;;;;54.03;29.08;;;9.70;79.80;;;;;;5079472;28;20547;-81
2021/11/15 05:02:51;;;;;;;50.95;28.05;;;9.60;79.90;;;;;;5085220;28;20561;-80
2021/11/15 05:05:18;;;;;;;50.65;28.17;;;9.50;80.20;;;;;;5077456;28;20208;-81
2021/11/15 05:07:45;;;;;;;51.35;27.65;;;9.40;80.40;;;;;;5077482;28;20662;-81
2021/11/15 05:10:11;;;;;;;54.92;30.17;;;9.40;80.20;;;;;;5082146;28;20284;-81
2021/11/15 05:12:38;;;;;;;46.00;25.83;;;9.50;80.10;;;;;;5079250;28;20208;-80
2021/11/15 05:15:12;;;;;;;50.88;26.50;;;9.60;80.00;;;;;;5075780;28;20507;-81
2021/11/15 05:17:39;;;;;;;60.53;31.88;;;9.70;79.80;;;;;;5083307;28;20192;-80
2021/11/15 05:20:08;;;;;;;60.78;29.45;;;9.70;79.60;;;;;;5085111;28;20659;-81
2021/11/15 05:22:34;;;;;;;51.63;26.35;;;9.60;79.70;;;;;;5091767;28;20574;-81
2021/11/15 05:25:00;;;;;;;60.53;29.92;;;9.60;79.80;;;;;;5078519;28;20243;-80
2021/11/15 05:27:26;;;;;;;49.90;28.30;;;9.60;79.90;;;;;;5084975;28;20250;-80
2021/11/15 05:29:51;;;;;;;53.80;27.17;;;9.70;80.00;;;;;;5087745;28;20984;-80
2021/11/15 05:32:18;;;;;;;53.87;26.97;;;9.70;79.80;;;;;;5084024;28;20571;-81
2021/11/15 05:34:43;;;;;;;49.95;25.50;;;9.70;79.40;;;;;;5085164;28;20561;-80
2021/11/15 05:37:10;;;;;;;49.97;25.10;;;9.70;79.30;;;;;;5082309;28;20181;-80
2021/11/15 05:39:35;;;;;;;58.17;25.02;;;9.50;79.30;;;;;;5076102;28;20426;-80
2021/11/15 05:42:01;;;;;;;51.37;24.03;;;9.50;79.20;;;;;;5088417;28;20176;-80
2021/11/15 05:44:27;;;;;;;45.77;22.60;;;9.50;79.10;;;;;;5082513;28;20204;-80
2021/11/15 05:46:53;;;;;;;43.13;22.73;;;9.50;79.20;;;;;;5095938;28;20418;-80
2021/11/15 05:49:20;;;;;;;41.78;22.20;;;9.40;79.30;;;;;;5083464;28;20460;-81
2021/11/15 05:51:45;;;;;;;48.28;23.55;;;9.40;79.50;;;;;;5086842;28;20172;-81
2021/11/15 05:54:11;;;;;;;41.60;20.27;;;9.30;79.30;;;;;;5084610;28;20200;-79
2021/11/15 05:56:37;;;;;;;43.10;22.97;;;9.30;79.20;;;;;;5078641;28;20472;-81
2021/11/15 05:59:03;;;;;;;52.33;24.17;;;9.40;79.20;;;;;;5078169;28;20176;-80
2021/11/15 06:01:28;;;;;;;41.30;21.97;;;9.30;79.30;;;;;;5063058;28;20188;-80
2021/11/15 06:03:54;;;;;;;44.43;25.37;;;9.30;79.30;;;;;;5086587;28;20442;-80
2021/11/15 06:06:20;;;;;;;43.13;22.50;;;9.30;79.20;;;;;;5091599;28;20172;-79
2021/11/15 06:08:46;;;;;;;44.60;22.63;;;9.50;79.30;;;;;;5078297;28;20189;-79
2021/11/15 06:11:11;;;;;;;42.50;21.63;;;9.60;79.10;;;;;;5097940;28;20605;-80
2021/11/15 06:13:37;;;;;;;42.07;21.27;;;9.60;78.70;;;;;;5097545;28;20204;-80
2021/11/15 06:16:03;;;;;;;42.47;21.83;;;9.60;78.70;;;;;;5088398;28;20267;-80
2021/11/15 06:18:29;;;;;;;46.75;22.70;;;9.60;78.60;;;;;;5077823;28;20427;-79
2021/11/15 06:20:55;;;;;;;41.67;20.23;;;9.60;78.60;;;;;;5087183;28;20211;-79
2021/11/15 06:23:20;;;;;;;43.17;23.07;;;9.70;78.70;;;;;;5090403;28;20184;-80
2021/11/15 06:25:46;;;;;;;42.63;21.57;;;9.80;78.70;;;;;;5078471;28;20185;-80
2021/11/15 06:28:12;;;;;;;41.07;20.67;;;9.60;78.70;;;;;;5062142;28;20209;-81
2021/11/15 06:30:39;;;;;;;44.47;23.47;;;9.40;79.30;;;;;;5083686;28;20868;-82
2021/11/15 06:33:05;;;;;;;40.45;22.15;;;9.40;79.50;;;;;;5079375;28;20177;-82
2021/11/15 06:35:31;;;;;;;44.17;21.90;;;9.30;79.90;;;;;;5078742;28;20218;-82
2021/11/15 06:37:57;;;;;;;43.17;21.80;;;9.20;80.20;;;;;;5078506;28;20210;-81
2021/11/15 06:40:24;;;;;;;43.83;22.08;;;9.10;80.30;;;;;;5083191;28;21019;-81
2021/11/15 06:42:50;;;;;;;45.78;21.08;;;9.10;80.40;;;;;;5082727;28;20195;-79
2021/11/15 06:45:18;;;;;;;43.10;20.87;;;9.20;80.10;;;;;;5086047;28;20291;-80
2021/11/15 06:47:44;;;;;;;46.72;22.40;;;9.20;80.00;;;;;;5077527;28;20457;-80
2021/11/15 06:50:13;;;;;;;46.13;23.48;;;9.20;79.80;;;;;;5077956;28;20662;-80
2021/11/15 06:52:40;;;;;;;41.55;20.67;;;9.40;79.60;;;;;;5078658;28;20195;-80
2021/11/15 06:55:07;;;;;;;47.03;22.13;;;9.40;79.60;;;;;;5081515;28;20200;-80
2021/11/15 06:57:33;;;;;;;44.80;23.15;;;9.40;79.60;;;;;;5085871;28;20185;-80
2021/11/15 06:59:59;;;;;;;46.25;21.42;;;9.30;79.50;;;;;;5084930;28;20236;-80
2021/11/15 07:02:24;;;;;;;41.47;21.83;;;9.30;79.90;;;;;;5077082;28;20271;-80
2021/11/15 07:04:50;;;;;;;41.47;21.57;;;9.30;80.10;;;;;;5079236;28;20196;-80
2021/11/15 07:07:16;;;;;;;49.70;23.40;;;9.40;80.30;;;;;;5077641;28;20203;-80
2021/11/15 07:09:46;;;;;;;44.47;23.37;;;9.50;80.20;;;;;;5084050;28;20176;-80
2021/11/15 07:12:12;;;;;;;41.13;21.85;;;9.50;80.00;;;;;;5080964;28;20419;-79
2021/11/15 07:14:38;;;;;;;46.97;23.23;;;9.40;79.70;;;;;;5077727;28;20705;-80
2021/11/15 07:17:04;;;;;;;40.75;20.75;;;9.30;80.10;;;;;;5084965;28;20180;-79
2021/11/15 07:19:31;;;;;;;48.30;24.40;;;9.30;80.60;;;;;;5081949;28;20545;-79
2021/11/15 07:21:57;;;;;;;43.03;21.52;;;9.40;80.70;;;;;;5078096;28;20184;-80
2021/11/15 07:24:22;;;;;;;48.13;21.77;;;9.60;80.30;;;;;;5078808;28;20204;-80
2021/11/15 07:26:48;;;;;;;38.83;21.30;;;9.50;80.10;;;;;;5079704;28;20178;-80
2021/11/15 07:29:14;;;;;;;42.17;21.47;;;9.50;80.10;;;;;;5083109;28;20648;-80
2021/11/15 07:31:43;;;;;;;45.57;23.60;;;9.50;79.90;;;;;;5083092;28;20422;-81
2021/11/15 07:34:09;;;;;;;47.40;24.15;;;9.40;79.90;;;;;;5085589;28;20204;-81
2021/11/15 07:36:35;;;;;;;50.20;24.50;;;9.10;80.60;;;;;;5088496;28;20176;-82
2021/11/15 07:39:03;;;;;;;44.80;22.65;;;9.00;81.00;;;;;;5080227;28;20845;-83
2021/11/15 07:41:29;;;;;;;50.33;21.80;;;9.00;81.20;;;;;;5092202;28;20557;-81
2021/11/15 07:43:55;;;;;;;45.17;23.27;;;9.20;81.20;;;;;;5079584;28;20232;-82
2021/11/15 07:46:22;;;;;;;54.67;22.90;;;9.20;80.90;;;;;;5092336;28;20377;-82
2021/11/15 07:48:48;;;;;;;47.22;21.42;;;9.30;80.70;;;;;;5065112;28;20234;-82
2021/11/15 07:51:14;;;;;;;40.92;21.02;;;9.40;80.50;;;;;;5085410;28;20168;-82
2021/11/15 07:53:39;;;;;;;52.22;23.30;;;9.30;80.40;;;;;;5101414;28;20195;-82
2021/11/15 07:56:07;;;;;;;43.93;22.63;;;9.40;80.50;;;;;;5091682;28;20153;-81
2021/11/15 07:58:34;;;;;;;54.83;24.77;;;9.40;80.50;;;;;;5101391;28;20243;-81
2021/11/15 08:01:01;;;;;;;50.72;22.95;;;9.50;80.60;;;;;;5109068;28;20188;-81
2021/11/15 08:03:26;;;;;;;48.67;24.13;;;9.60;80.30;;;;;;5093331;28;20330;-81
2021/11/15 08:05:52;;;;;;;47.90;24.70;;;9.50;80.20;;;;;;5095249;28;20204;-82
2021/11/15 08:08:18;;;;;;;52.17;25.07;;;9.60;80.20;;;;;;5093013;28;20205;-81
2021/11/15 08:10:44;;;;;;;47.43;22.77;;;9.60;79.80;;;;;;5079981;28;20506;-81
2021/11/15 08:13:10;;;;;;;54.58;25.42;;;9.60;79.60;;;;;;5076368;28;20427;-81
2021/11/15 08:15:36;;;;;;;50.67;22.83;;;9.50;79.80;;;;;;5078753;28;20180;-81
2021/11/15 08:18:05;;;;;;;59.20;25.42;;;9.50;79.80;;;;;;5081430;28;20421;-81
2021/11/15 08:20:40;;;;;;;54.95;25.33;;;9.60;79.80;;;;;;5079053;28;20658;-81
2021/11/15 08:23:13;;;;;;;44.83;23.70;;;9.60;79.90;;;;;;5089691;28;20203;-81
2021/11/15 08:25:57;;;;;;;44.17;23.08;;;9.60;80.30;;;;;;5077050;28;20179;-81
2021/11/15 08:28:25;;;;;;;48.13;22.95;;;9.80;79.90;;;;;;5081212;28;20207;-82
2021/11/15 08:30:54;;;;;;;47.88;22.60;;;9.80;79.60;;;;;;5083968;28;20628;-81
2021/11/15 08:33:20;;;;;;;48.75;23.40;;;9.70;79.70;;;;;;5104405;28;20180;-81
2021/11/15 08:35:48;;;;;;;53.90;23.60;;;9.70;79.60;;;;;;5111444;28;20215;-81
2021/11/15 08:38:18;;;;;;;43.95;21.63;;;9.60;79.80;;;;;;5107684;28;20410;-81
2021/11/15 08:40:49;;;;;;;52.15;23.70;;;9.50;79.90;;;;;;5111266;28;20681;-81
2021/11/15 08:43:20;;;;;;;48.55;22.10;;;9.50;79.70;;;;;;5106862;28;20180;-81
2021/11/15 08:45:47;;;;;;;49.78;22.17;;;9.50;79.90;;;;;;5103997;28;20172;-81
2021/11/15 08:48:14;;;;;;;47.10;22.00;;;9.50;79.90;;;;;;5102930;28;20207;-81
2021/11/15 08:50:40;;;;;;;49.33;23.58;;;9.70;79.70;;;;;;5101831;28;20168;-82
2021/11/15 08:53:06;;;;;;;48.63;22.33;;;9.60;79.40;;;;;;5101100;28;20201;-82
2021/11/15 08:55:32;;;;;;;50.92;21.20;;;9.60;79.50;;;;;;5091384;28;20430;-81
2021/11/15 08:57:59;;;;;;;50.03;22.85;;;9.50;79.50;;;;;;5081000;28;20182;-81
2021/11/15 09:00:26;;;;;;;50.20;21.58;;;9.30;80.00;;;;;;5080364;28;20172;-82
2021/11/15 09:02:52;;;;;;;45.85;22.33;;;9.30;80.20;;;;;;5085409;28;20210;-81
2021/11/15 09:05:18;;;;;;;52.30;23.40;;;9.30;80.10;;;;;;5099253;28;20203;-82
2021/11/15 09:07:44;;;;;;;50.05;22.63;;;9.40;80.20;;;;;;5112643;28;20478;-81
2021/11/15 09:10:12;;;;;;;47.80;23.63;;;9.60;80.00;;;;;;5109863;28;20172;-81
2021/11/15 09:12:39;;;;;;;47.13;24.15;;;9.60;79.90;;;;;;5104746;28;20489;-81
2021/11/15 09:15:07;;;;;;;45.28;20.52;;;9.60;79.80;;;;;;5103096;28;20207;-81
2021/11/15 09:17:34;;;;;;;45.35;23.38;;;9.60;79.70;;;;;;5102310;28;20270;-82
2021/11/15 09:20:00;;;;;;;50.22;22.02;;;9.60;79.60;;;;;;5090507;28;20184;-81
2021/11/15 09:22:26;;;;;;;47.20;22.73;;;9.60;79.50;;;;;;5105232;28;20177;-81
2021/11/15 09:24:52;;;;;;;47.60;21.88;;;9.60;79.70;;;;;;5122173;27;20440;-81
2021/11/15 09:27:18;;;;;;;49.90;22.85;;;9.60;79.70;;;;;;5122754;28;20531;-82
2021/11/15 09:29:48;;;;;;;49.92;21.25;;;9.60;79.60;;;;;;5122323;28;20171;-81
2021/11/15 09:32:16;;;;;;;47.72;22.15;;;9.40;79.40;;;;;;5117691;28;20168;-81
2021/11/15 09:34:43;;;;;;;47.67;21.80;;;9.50;79.60;;;;;;5101390;28;20241;-81
2021/11/15 09:37:10;;;;;;;45.03;21.30;;;9.40;79.50;;;;;;5101412;28;20179;-81
2021/11/15 09:39:45;;;;;;;40.88;21.17;;;9.30;79.40;;;;;;5095128;28;20192;-81
2021/11/15 09:42:14;;;;;;;47.70;22.58;;;9.20;79.40;;;;;;5081182;28;20204;-81
2021/11/15 09:44:41;;;;;;;44.08;20.60;;;9.20;79.50;;;;;;5096615;28;20251;-81
2021/11/15 09:47:08;;;;;;;47.03;20.75;;;9.10;79.70;;;;;;5098313;28;20208;-81
2021/11/15 09:49:35;;;;;;;47.30;23.58;;;9.00;80.00;;;;;;5097414;28;20175;-82
2021/11/15 09:52:01;;;;;;;58.20;24.10;;;9.10;80.40;;;;;;5093908;28;20190;-81
2021/11/15 09:54:27;;;;;;;48.60;22.08;;;9.20;80.50;;;;;;5092053;28;20208;-81
2021/11/15 09:56:55;;;;;;;46.17;20.42;;;9.20;80.20;;;;;;5111961;28;20191;-81
2021/11/15 09:59:24;;;;;;;48.83;22.55;;;9.20;80.20;;;;;;5111906;28;20172;-81
2021/11/15 10:01:52;;;;;;;48.45;22.67;;;9.20;80.00;;;;;;5114113;28;20182;-81
2021/11/15 10:04:18;;;;;;;45.35;21.88;;;9.30;80.00;;;;;;5111501;28;20256;-81
2021/11/15 10:06:49;;;;;;;52.72;23.30;;;9.30;80.00;;;;;;5105874;28;20222;-81
2021/11/15 10:09:25;;;;;;;56.28;24.67;;;9.20;79.90;;;;;;5101615;28;20576;-81
2021/11/15 10:11:51;;;;;;;56.28;23.20;;;9.10;80.30;;;;;;5101554;28;20180;-80
2021/11/15 10:14:18;;;;;;;55.25;24.10;;;9.20;80.30;;;;;;5099712;28;20623;-81
2021/11/15 10:16:58;;;;;;;50.63;22.17;;;9.20;80.20;;;;;;5100219;28;20176;-80
2021/11/15 10:19:23;;;;;;;49.75;24.92;;;9.30;80.30;;;;;;5093328;28;20168;-81
2021/11/15 10:21:55;;;;;;;53.10;26.27;;;9.30;80.20;;;;;;5092489;28;20167;-81
2021/11/15 10:24:23;;;;;;;50.90;22.63;;;9.30;80.10;;;;;;5119193;28;20244;-81
2021/11/15 10:26:58;;;;;;;54.72;25.40;;;9.30;80.20;;;;;;5121349;28;20198;-81
2021/11/15 10:29:37;;;;;;;56.85;23.88;;;9.30;80.40;;;;;;5119428;28;20225;-82
2021/11/15 10:32:06;;;;;;;59.20;24.08;;;9.30;80.50;;;;;;5118373;28;20186;-82
2021/11/15 10:34:46;;;;;;;54.97;24.30;;;9.30;80.50;;;;;;5098830;28;20689;-81
2021/11/15 10:37:19;;;;;;;58.05;24.65;;;9.20;80.20;;;;;;5098678;28;20197;-82
2021/11/15 10:40:03;;;;;;;56.35;25.63;;;9.30;80.40;;;;;;5090924;28;20176;-81
2021/11/15 10:42:32;;;;;;;50.60;24.13;;;9.40;80.20;;;;;;5079578;28;20182;-82
2021/11/15 10:45:25;;;;;;;60.78;28.02;;;9.40;80.00;;;;;;5077861;28;20254;-81
2021/11/15 10:47:51;;;;;;;53.03;24.10;;;9.50;79.90;;;;;;5060511;28;20627;-81
2021/11/15 10:50:27;;;;;;;49.50;23.17;;;9.40;79.90;;;;;;5078276;28;20180;-81
2021/11/15 10:53:06;;;;;;;51.20;25.50;;;9.30;79.90;;;;;;5078213;28;20662;-82
2021/11/15 10:55:38;;;;;;;58.38;23.80;;;9.30;79.90;;;;;;5086834;28;20196;-81
2021/11/15 10:58:17;;;;;;;53.72;24.02;;;9.30;79.70;;;;;;5098367;28;20179;-81
2021/11/15 11:00:59;;;;;;;47.72;23.52;;;9.20;79.70;;;;;;5082508;28;20186;-81
2021/11/15 11:03:27;;;;;;;57.45;26.30;;;9.20;79.90;;;;;;5100179;28;20164;-82
2021/11/15 11:05:57;;;;;;;51.42;25.65;;;9.30;80.00;;;;;;5100615;28;20179;-81
2021/11/15 11:08:40;;;;;;;53.05;23.80;;;9.50;79.80;;;;;;5099208;28;20204;-81
2021/11/15 11:11:08;;;;;;;53.03;23.58;;;9.50;79.60;;;;;;5097969;28;20281;-81
2021/11/15 11:13:47;;;;;;;48.13;23.30;;;9.60;79.40;;;;;;5080839;28;20211;-81
2021/11/15 11:16:13;;;;;;;56.35;24.15;;;9.60;79.00;;;;;;5098812;28;20213;-81
2021/11/15 11:18:44;;;;;;;57.45;27.40;;;9.70;79.00;;;;;;5096646;28;20187;-81
2021/11/15 11:26:34;;;;;;;53.50;25.73;;;9.70;78.90;;;;;;5116476;28;20544;-81
2021/11/15 11:29:04;;;;;;;51.80;24.40;;;9.60;78.70;;;;;;5115318;28;20199;-82
2021/11/15 11:31:33;;;;;;;59.85;27.17;;;9.60;78.70;;;;;;5119743;28;20586;-81
2021/11/15 11:33:59;;;;;;;55.13;27.58;;;9.70;78.80;;;;;;5100555;28;20203;-82
2021/11/15 11:36:26;;;;;;;62.97;26.88;;;9.70;78.60;;;;;;5098526;28;20267;-81
2021/11/15 11:38:53;;;;;;;58.30;26.38;;;9.60;79.20;;;;;;5081111;28;20184;-81
2021/11/15 11:41:19;;;;;;;57.00;26.05;;;9.50;78.50;;;;;;5097013;28;20179;-81
2021/11/15 11:43:46;;;;;;;51.25;24.63;;;9.50;78.90;;;;;;5097392;28;20622;-81
2021/11/15 11:46:20;;;;;;;65.65;26.85;;;9.40;78.80;;;;;;5096659;28;20213;-81
2021/11/15 11:48:51;;;;;;;59.95;26.38;;;9.40;78.70;;;;;;5093808;28;20242;-81
2021/11/15 11:51:25;;;;;;;60.72;24.77;;;9.40;78.60;;;;;;5096436;28;20259;-82
2021/11/15 11:54:20;;;;;;;54.78;24.50;;;9.40;78.90;;;;;;5096113;28;20217;-81
2021/11/15 11:57:13;;;;;;;49.75;24.08;;;9.30;78.60;;;;;;5080845;28;20206;-81
2021/11/15 11:59:46;;;;;;;50.92;23.63;;;9.50;78.70;;;;;;5099102;28;20180;-81
2021/11/15 12:02:17;;;;;;;52.13;23.35;;;9.50;78.80;;;;;;5098733;28;20228;-81
2021/11/15 12:04:53;;;;;;;58.28;25.75;;;9.20;78.90;;;;;;5097544;28;20286;-81
2021/11/15 12:07:37;;;;;;;55.35;26.58;;;9.20;79.20;;;;;;5098524;28;20220;-81
2021/11/15 12:10:31;;;;;;;57.60;24.63;;;9.50;79.40;;;;;;5099622;28;20159;-81
2021/11/15 12:13:03;;;;;;;53.33;25.98;;;9.50;78.80;;;;;;5101347;28;20247;-82
2021/11/15 12:15:36;;;;;;;59.60;25.83;;;9.40;78.70;;;;;;5085884;28;20676;-81
2021/11/15 12:18:27;;;;;;;49.40;25.17;;;9.40;79.10;;;;;;5096050;28;20172;-81
2021/11/15 12:21:16;;;;;;;53.10;23.95;;;9.50;78.90;;;;;;5102711;28;20271;-81
2021/11/15 12:23:42;;;;;;;57.28;25.35;;;9.50;78.80;;;;;;5082002;28;20671;-81
2021/11/15 12:26:15;;;;;;;52.10;24.80;;;9.50;78.70;;;;;;5082035;28;20199;-81
2021/11/15 12:28:45;;;;;;;53.47;25.13;;;9.50;78.80;;;;;;5081218;28;20214;-81
2021/11/15 12:31:12;;;;;;;52.03;25.08;;;9.40;79.00;;;;;;5081546;28;20183;-81
2021/11/15 12:33:41;;;;;;;58.35;27.40;;;9.50;79.00;;;;;;5075841;28;20546;-81
2021/11/15 12:36:27;;;;;;;57.20;26.98;;;9.40;78.90;;;;;;5081613;28;20176;-81
2021/11/15 12:38:54;;;;;;;61.85;28.10;;;9.40;79.10;;;;;;5082475;28;20157;-81
2021/11/15 12:41:22;;;;;;;59.70;27.73;;;9.50;79.20;;;;;;5081122;28;20280;-81
2021/11/15 12:44:03;;;;;;;67.45;26.73;;;9.40;79.30;;;;;;5080893;28;20197;-81
2021/11/15 12:46:54;;;;;;;60.58;28.17;;;9.30;79.40;;;;;;5080966;28;20180;-81